sensor_id;sensor_type;location;lat;lon;timestamp;temperature;humidity
19220;DHT22;9744;49.364;7.484;2024-03-29T00:02:04;6.40;99.90
19220;DHT22;9744;49.364;7.484;2024-03-29T00:04:30;6.40;99.90
19220;DHT22;9744;49.364;7.484;2024-03-29T00:06:58;6.50;99.90
19220;DHT22;9744;49.364;7.484;2024-03-29T00:09:24;6.60;99.90
19220;DHT22;9744;49.364;7.484;2024-03-29T00:11:50;6.60;99.90
19220;DHT22;9744;49.364;7.484;2024-03-29T00:14:16;6.60;99.90
19220;DHT22;9744;49.364;7.484;2024-03-29T00:16:42;6.60;99.90
19220;DHT22;9744;49.364;7.484;2024-03-29T00:19:09;6.50;99.90
19220;DHT22;9744;49.364;7.484;2024-03-29T00:21:35;6.50;99.90
19220;DHT22;9744;49.364;7.484;2024-03-29T00:24:03;6.50;99.90
19220;DHT22;9744;49.364;7.484;2024-03-29T00:26:29;6.50;99.90
19220;DHT22;9744;49.364;7.484;2024-03-29T00:28:55;6.50;99.90
19220;DHT22;9744;49.364;7.484;2024-03-29T00:31:22;6.50;99.90
19220;DHT22;9744;49.364;7.484;2024-03-29T00:33:48;6.50;99.90
19220;DHT22;9744;49.364;7.484;2024-03-29T00:36:14;6.50;99.90
19220;DHT22;9744;49.364;7.484;2024-03-29T00:38:40;6.50;99.90
19220;DHT22;9744;49.364;7.484;2024-03-29T00:41:13;6.50;99.90
19220;DHT22;9744;49.364;7.484;2024-03-29T00:43:39;6.50;99.90
19220;DHT22;9744;49.364;7.484;2024-03-29T00:46:05;6.50;99.90
19220;DHT22;9744;49.364;7.484;2024-03-29T00:48:31;6.50;99.90
19220;DHT22;9744;49.364;7.484;2024-03-29T00:50:57;6.50;99.90
19220;DHT22;9744;49.364;7.484;2024-03-29T00:53:24;6.50;99.90
19220;DHT22;9744;49.364;7.484;2024-03-29T00:55:50;6.50;99.90
19220;DHT22;9744;49.364;7.484;2024-03-29T00:58:19;6.60;99.90
19220;DHT22;9744;49.364;7.484;2024-03-29T01:00:52;6.50;99.90
19220;DHT22;9744;49.364;7.484;2024-03-29T01:09:23;6.60;99.90
19220;DHT22;9744;49.364;7.484;2024-03-29T01:17:58;6.60;99.90
19220;DHT22;9744;49.364;7.484;2024-03-29T01:37:16;6.80;99.90
19220;DHT22;9744;49.364;7.484;2024-03-29T01:51:14;6.80;99.90
19220;DHT22;9744;49.364;7.484;2024-03-29T01:54:17;6.80;99.90
19220;DHT22;9744;49.364;7.484;2024-03-29T01:56:44;6.80;99.90
19220;DHT22;9744;49.364;7.484;2024-03-29T01:59:14;6.80;99.90
19220;DHT22;9744;49.364;7.484;2024-03-29T02:01:43;6.80;99.90
19220;DHT22;9744;49.364;7.484;2024-03-29T02:04:16;6.80;99.90
19220;DHT22;9744;49.364;7.484;2024-03-29T02:30:24;6.90;99.90
19220;DHT22;9744;49.364;7.484;2024-03-29T02:32:51;7.00;99.90
19220;DHT22;9744;49.364;7.484;2024-03-29T02:35:18;7.00;99.90
19220;DHT22;9744;49.364;7.484;2024-03-29T02:37:46;7.00;99.90
19220;DHT22;9744;49.364;7.484;2024-03-29T02:40:13;7.00;99.90
19220;DHT22;9744;49.364;7.484;2024-03-29T02:42:40;6.90;99.90
19220;DHT22;9744;49.364;7.484;2024-03-29T02:45:31;6.90;99.90
19220;DHT22;9744;49.364;7.484;2024-03-29T02:47:59;6.90;99.90
19220;DHT22;9744;49.364;7.484;2024-03-29T02:55:55;6.80;99.90
19220;DHT22;9744;49.364;7.484;2024-03-29T03:09:18;6.70;99.90
19220;DHT22;9744;49.364;7.484;2024-03-29T03:17:34;6.70;99.90
19220;DHT22;9744;49.364;7.484;2024-03-29T03:20:01;6.70;99.90
19220;DHT22;9744;49.364;7.484;2024-03-29T03:22:30;6.70;99.90
19220;DHT22;9744;49.364;7.484;2024-03-29T03:24:59;6.70;99.90
19220;DHT22;9744;49.364;7.484;2024-03-29T03:27:25;6.60;99.90
19220;DHT22;9744;49.364;7.484;2024-03-29T03:29:53;6.60;99.90
19220;DHT22;9744;49.364;7.484;2024-03-29T03:32:19;6.50;99.90
19220;DHT22;9744;49.364;7.484;2024-03-29T03:34:47;6.50;99.90
19220;DHT22;9744;49.364;7.484;2024-03-29T03:37:14;6.60;99.90
19220;DHT22;9744;49.364;7.484;2024-03-29T03:39:41;6.60;99.90
19220;DHT22;9744;49.364;7.484;2024-03-29T03:42:09;5.90;99.90
19220;DHT22;9744;49.364;7.484;2024-03-29T03:44:37;5.90;99.90
19220;DHT22;9744;49.364;7.484;2024-03-29T03:47:04;6.40;99.90
19220;DHT22;9744;49.364;7.484;2024-03-29T03:49:32;6.90;99.90
19220;DHT22;9744;49.364;7.484;2024-03-29T03:51:58;6.30;99.90
19220;DHT22;9744;49.364;7.484;2024-03-29T03:54:26;6.30;99.90
19220;DHT22;9744;49.364;7.484;2024-03-29T04:10:39;6.20;99.90
19220;DHT22;9744;49.364;7.484;2024-03-29T04:13:15;6.20;99.90
19220;DHT22;9744;49.364;7.484;2024-03-29T04:27:12;6.20;99.90
19220;DHT22;9744;49.364;7.484;2024-03-29T04:29:38;6.10;99.90
19220;DHT22;9744;49.364;7.484;2024-03-29T04:32:06;6.10;99.90
19220;DHT22;9744;49.364;7.484;2024-03-29T04:34:33;6.10;99.90
19220;DHT22;9744;49.364;7.484;2024-03-29T04:37:00;6.00;99.90
19220;DHT22;9744;49.364;7.484;2024-03-29T04:39:28;6.00;99.90
19220;DHT22;9744;49.364;7.484;2024-03-29T04:41:55;6.00;99.90
19220;DHT22;9744;49.364;7.484;2024-03-29T04:44:36;6.00;99.90
19220;DHT22;9744;49.364;7.484;2024-03-29T04:47:03;6.00;99.90
19220;DHT22;9744;49.364;7.484;2024-03-29T04:49:32;6.00;99.90
19220;DHT22;9744;49.364;7.484;2024-03-29T04:52:02;6.00;99.90
19220;DHT22;9744;49.364;7.484;2024-03-29T04:54:33;6.00;99.90
19220;DHT22;9744;49.364;7.484;2024-03-29T04:57:01;5.90;99.90
19220;DHT22;9744;49.364;7.484;2024-03-29T04:59:33;5.90;99.90
19220;DHT22;9744;49.364;7.484;2024-03-29T05:02:01;5.90;99.90
19220;DHT22;9744;49.364;7.484;2024-03-29T05:04:28;5.90;99.90
19220;DHT22;9744;49.364;7.484;2024-03-29T05:06:56;5.90;99.90
19220;DHT22;9744;49.364;7.484;2024-03-29T05:09:24;5.90;99.90
19220;DHT22;9744;49.364;7.484;2024-03-29T05:11:52;5.90;99.90
19220;DHT22;9744;49.364;7.484;2024-03-29T05:14:20;5.90;99.90
19220;DHT22;9744;49.364;7.484;2024-03-29T05:16:50;5.90;99.90
19220;DHT22;9744;49.364;7.484;2024-03-29T05:19:17;5.80;99.90
19220;DHT22;9744;49.364;7.484;2024-03-29T05:21:44;5.90;99.90
19220;DHT22;9744;49.364;7.484;2024-03-29T05:24:13;5.90;99.90
19220;DHT22;9744;49.364;7.484;2024-03-29T05:26:40;5.80;99.90
19220;DHT22;9744;49.364;7.484;2024-03-29T05:29:07;5.90;99.90
19220;DHT22;9744;49.364;7.484;2024-03-29T05:31:35;5.90;99.90
19220;DHT22;9744;49.364;7.484;2024-03-29T05:34:04;5.90;99.90
19220;DHT22;9744;49.364;7.484;2024-03-29T05:42:18;5.90;99.90
19220;DHT22;9744;49.364;7.484;2024-03-29T05:48:07;5.90;99.90
19220;DHT22;9744;49.364;7.484;2024-03-29T06:13:14;5.80;99.90
19220;DHT22;9744;49.364;7.484;2024-03-29T06:15:55;5.80;99.90
19220;DHT22;9744;49.364;7.484;2024-03-29T06:18:41;5.80;99.90
19220;DHT22;9744;49.364;7.484;2024-03-29T06:21:08;5.80;99.90
19220;DHT22;9744;49.364;7.484;2024-03-29T06:23:36;5.80;99.90
19220;DHT22;9744;49.364;7.484;2024-03-29T06:26:04;5.80;99.90
19220;DHT22;9744;49.364;7.484;2024-03-29T06:28:33;5.80;99.90
19220;DHT22;9744;49.364;7.484;2024-03-29T06:31:00;5.80;99.90
19220;DHT22;9744;49.364;7.484;2024-03-29T06:33:29;5.80;99.90
19220;DHT22;9744;49.364;7.484;2024-03-29T06:35:56;5.80;99.90
19220;DHT22;9744;49.364;7.484;2024-03-29T06:38:24;5.80;99.90
19220;DHT22;9744;49.364;7.484;2024-03-29T06:40:52;5.80;99.90
19220;DHT22;9744;49.364;7.484;2024-03-29T06:43:21;5.80;99.90
19220;DHT22;9744;49.364;7.484;2024-03-29T06:45:50;5.80;99.90
19220;DHT22;9744;49.364;7.484;2024-03-29T06:48:17;5.80;99.90
19220;DHT22;9744;49.364;7.484;2024-03-29T06:50:45;5.80;99.90
19220;DHT22;9744;49.364;7.484;2024-03-29T06:53:24;5.90;99.90
19220;DHT22;9744;49.364;7.484;2024-03-29T07:27:18;6.30;99.90
19220;DHT22;9744;49.364;7.484;2024-03-29T07:41:46;6.50;99.90
19220;DHT22;9744;49.364;7.484;2024-03-29T07:50:04;6.60;99.90
19220;DHT22;9744;49.364;7.484;2024-03-29T08:13:04;6.90;99.90
19220;DHT22;9744;49.364;7.484;2024-03-29T08:15:34;6.90;99.90
19220;DHT22;9744;49.364;7.484;2024-03-29T08:18:01;7.10;99.90
19220;DHT22;9744;49.364;7.484;2024-03-29T08:20:29;7.00;99.90
19220;DHT22;9744;49.364;7.484;2024-03-29T08:22:59;7.00;99.90
19220;DHT22;9744;49.364;7.484;2024-03-29T08:25:30;7.10;99.90
19220;DHT22;9744;49.364;7.484;2024-03-29T08:27:58;7.50;99.90
19220;DHT22;9744;49.364;7.484;2024-03-29T08:30:27;7.10;99.90
19220;DHT22;9744;49.364;7.484;2024-03-29T08:33:01;7.10;99.90
19220;DHT22;9744;49.364;7.484;2024-03-29T08:35:29;7.20;99.90
19220;DHT22;9744;49.364;7.484;2024-03-29T08:37:56;7.20;99.90
19220;DHT22;9744;49.364;7.484;2024-03-29T08:40:26;7.30;99.90
19220;DHT22;9744;49.364;7.484;2024-03-29T08:42:54;7.30;99.90
19220;DHT22;9744;49.364;7.484;2024-03-29T08:45:22;7.40;99.90
19220;DHT22;9744;49.364;7.484;2024-03-29T08:47:51;7.40;99.90
19220;DHT22;9744;49.364;7.484;2024-03-29T08:50:19;7.40;99.90
19220;DHT22;9744;49.364;7.484;2024-03-29T08:52:47;7.50;99.90
19220;DHT22;9744;49.364;7.484;2024-03-29T08:55:16;7.50;99.90
19220;DHT22;9744;49.364;7.484;2024-03-29T08:57:43;7.50;99.90
19220;DHT22;9744;49.364;7.484;2024-03-29T09:00:14;7.60;99.90
19220;DHT22;9744;49.364;7.484;2024-03-29T09:05:34;7.70;99.90
19220;DHT22;9744;49.364;7.484;2024-03-29T09:08:02;7.80;99.90
19220;DHT22;9744;49.364;7.484;2024-03-29T09:10:29;7.80;99.90
19220;DHT22;9744;49.364;7.484;2024-03-29T09:12:57;7.90;99.90
19220;DHT22;9744;49.364;7.484;2024-03-29T09:15:24;7.90;99.90
19220;DHT22;9744;49.364;7.484;2024-03-29T09:17:51;7.90;99.90
19220;DHT22;9744;49.364;7.484;2024-03-29T09:20:21;8.00;99.90
19220;DHT22;9744;49.364;7.484;2024-03-29T09:22:51;8.00;99.90
19220;DHT22;9744;49.364;7.484;2024-03-29T09:25:19;8.10;99.90
19220;DHT22;9744;49.364;7.484;2024-03-29T09:27:46;8.10;99.90
19220;DHT22;9744;49.364;7.484;2024-03-29T09:30:14;8.10;99.90
19220;DHT22;9744;49.364;7.484;2024-03-29T09:32:44;8.10;99.90
19220;DHT22;9744;49.364;7.484;2024-03-29T09:35:12;8.20;99.90
19220;DHT22;9744;49.364;7.484;2024-03-29T09:37:39;8.20;99.90
19220;DHT22;9744;49.364;7.484;2024-03-29T09:40:12;8.30;99.90
19220;DHT22;9744;49.364;7.484;2024-03-29T09:42:40;8.40;99.90
19220;DHT22;9744;49.364;7.484;2024-03-29T09:45:08;8.40;99.90
19220;DHT22;9744;49.364;7.484;2024-03-29T09:47:38;8.50;99.90
19220;DHT22;9744;49.364;7.484;2024-03-29T09:50:07;8.60;99.90
19220;DHT22;9744;49.364;7.484;2024-03-29T09:52:36;8.60;99.90
19220;DHT22;9744;49.364;7.484;2024-03-29T09:55:04;8.60;99.90
19220;DHT22;9744;49.364;7.484;2024-03-29T09:57:35;8.70;99.90
19220;DHT22;9744;49.364;7.484;2024-03-29T10:00:03;8.80;99.90
19220;DHT22;9744;49.364;7.484;2024-03-29T10:02:31;8.80;99.90
19220;DHT22;9744;49.364;7.484;2024-03-29T10:05:01;8.90;99.90
19220;DHT22;9744;49.364;7.484;2024-03-29T10:07:31;9.10;99.90
19220;DHT22;9744;49.364;7.484;2024-03-29T10:10:02;9.00;99.90
19220;DHT22;9744;49.364;7.484;2024-03-29T10:12:29;9.00;99.90
19220;DHT22;9744;49.364;7.484;2024-03-29T10:15:00;9.10;99.90
19220;DHT22;9744;49.364;7.484;2024-03-29T10:17:34;9.20;99.90
19220;DHT22;9744;49.364;7.484;2024-03-29T10:20:05;9.30;99.90
19220;DHT22;9744;49.364;7.484;2024-03-29T10:22:36;9.40;99.90
19220;DHT22;9744;49.364;7.484;2024-03-29T10:25:04;9.40;99.90
19220;DHT22;9744;49.364;7.484;2024-03-29T10:30:56;9.50;99.90
19220;DHT22;9744;49.364;7.484;2024-03-29T10:33:27;9.50;99.90
19220;DHT22;9744;49.364;7.484;2024-03-29T10:35:54;9.60;99.90
19220;DHT22;9744;49.364;7.484;2024-03-29T10:38:24;9.50;99.90
19220;DHT22;9744;49.364;7.484;2024-03-29T10:40:52;9.50;99.90
19220;DHT22;9744;49.364;7.484;2024-03-29T10:43:20;9.50;99.90
19220;DHT22;9744;49.364;7.484;2024-03-29T10:45:50;9.40;99.90
19220;DHT22;9744;49.364;7.484;2024-03-29T10:48:22;9.30;99.90
19220;DHT22;9744;49.364;7.484;2024-03-29T10:50:49;9.20;99.90
19220;DHT22;9744;49.364;7.484;2024-03-29T10:53:18;9.10;99.90
19220;DHT22;9744;49.364;7.484;2024-03-29T10:55:45;9.00;99.90
19220;DHT22;9744;49.364;7.484;2024-03-29T10:58:45;9.00;99.90
19220;DHT22;9744;49.364;7.484;2024-03-29T11:01:17;9.00;99.90
19220;DHT22;9744;49.364;7.484;2024-03-29T11:03:50;8.90;99.90
19220;DHT22;9744;49.364;7.484;2024-03-29T11:06:26;8.90;99.90
19220;DHT22;9744;49.364;7.484;2024-03-29T11:08:56;8.80;99.90
19220;DHT22;9744;49.364;7.484;2024-03-29T11:11:26;8.80;99.90
19220;DHT22;9744;49.364;7.484;2024-03-29T11:14:02;8.70;99.90
19220;DHT22;9744;49.364;7.484;2024-03-29T11:16:30;8.70;99.90
19220;DHT22;9744;49.364;7.484;2024-03-29T11:18:59;8.70;99.90
19220;DHT22;9744;49.364;7.484;2024-03-29T11:21:31;8.70;99.90
19220;DHT22;9744;49.364;7.484;2024-03-29T11:24:04;8.70;99.90
19220;DHT22;9744;49.364;7.484;2024-03-29T11:26:31;8.70;99.90
19220;DHT22;9744;49.364;7.484;2024-03-29T11:29:01;8.60;99.90
19220;DHT22;9744;49.364;7.484;2024-03-29T11:31:29;8.60;99.90
19220;DHT22;9744;49.364;7.484;2024-03-29T11:34:00;8.60;99.90
19220;DHT22;9744;49.364;7.484;2024-03-29T11:36:34;8.60;99.90
19220;DHT22;9744;49.364;7.484;2024-03-29T11:39:01;8.60;99.90
19220;DHT22;9744;49.364;7.484;2024-03-29T11:41:28;8.60;99.90
19220;DHT22;9744;49.364;7.484;2024-03-29T11:43:58;8.60;99.90
19220;DHT22;9744;49.364;7.484;2024-03-29T11:46:25;8.60;99.90
19220;DHT22;9744;49.364;7.484;2024-03-29T11:48:53;8.60;99.90
19220;DHT22;9744;49.364;7.484;2024-03-29T11:51:22;8.60;99.90
19220;DHT22;9744;49.364;7.484;2024-03-29T11:53:51;8.60;99.90
19220;DHT22;9744;49.364;7.484;2024-03-29T11:56:19;8.60;99.90
19220;DHT22;9744;49.364;7.484;2024-03-29T11:58:47;8.60;99.90
19220;DHT22;9744;49.364;7.484;2024-03-29T12:01:16;8.70;99.90
19220;DHT22;9744;49.364;7.484;2024-03-29T12:03:43;8.70;99.90
19220;DHT22;9744;49.364;7.484;2024-03-29T12:06:14;8.70;99.90
19220;DHT22;9744;49.364;7.484;2024-03-29T12:08:44;8.80;99.90
19220;DHT22;9744;49.364;7.484;2024-03-29T12:11:12;8.90;99.90
19220;DHT22;9744;49.364;7.484;2024-03-29T12:13:39;8.90;99.90
19220;DHT22;9744;49.364;7.484;2024-03-29T12:16:07;9.00;99.90
19220;DHT22;9744;49.364;7.484;2024-03-29T12:18:35;9.00;99.90
19220;DHT22;9744;49.364;7.484;2024-03-29T12:21:02;9.00;99.90
19220;DHT22;9744;49.364;7.484;2024-03-29T12:23:34;9.10;99.90
19220;DHT22;9744;49.364;7.484;2024-03-29T12:26:03;9.10;99.90
19220;DHT22;9744;49.364;7.484;2024-03-29T12:28:30;9.10;99.90
19220;DHT22;9744;49.364;7.484;2024-03-29T12:31:00;9.10;99.90
19220;DHT22;9744;49.364;7.484;2024-03-29T12:33:27;9.20;99.90
19220;DHT22;9744;49.364;7.484;2024-03-29T12:35:58;9.20;99.90
19220;DHT22;9744;49.364;7.484;2024-03-29T12:38:25;9.20;99.90
19220;DHT22;9744;49.364;7.484;2024-03-29T12:40:53;9.30;99.90
19220;DHT22;9744;49.364;7.484;2024-03-29T12:43:23;9.30;99.90
19220;DHT22;9744;49.364;7.484;2024-03-29T12:45:51;9.30;99.90
19220;DHT22;9744;49.364;7.484;2024-03-29T12:48:20;9.30;99.90
19220;DHT22;9744;49.364;7.484;2024-03-29T12:50:49;9.30;99.90
19220;DHT22;9744;49.364;7.484;2024-03-29T12:53:17;9.30;99.90
19220;DHT22;9744;49.364;7.484;2024-03-29T12:55:45;9.30;99.90
19220;DHT22;9744;49.364;7.484;2024-03-29T12:58:13;9.20;99.90
19220;DHT22;9744;49.364;7.484;2024-03-29T13:00:44;9.30;99.90
19220;DHT22;9744;49.364;7.484;2024-03-29T13:03:12;9.30;99.90
19220;DHT22;9744;49.364;7.484;2024-03-29T13:05:40;9.40;99.90
19220;DHT22;9744;49.364;7.484;2024-03-29T13:08:08;9.40;99.90
19220;DHT22;9744;49.364;7.484;2024-03-29T13:10:36;9.40;99.90
19220;DHT22;9744;49.364;7.484;2024-03-29T13:13:04;9.40;99.90
19220;DHT22;9744;49.364;7.484;2024-03-29T13:15:33;9.40;99.90
19220;DHT22;9744;49.364;7.484;2024-03-29T13:18:03;9.40;99.90
19220;DHT22;9744;49.364;7.484;2024-03-29T13:20:32;9.40;99.90
19220;DHT22;9744;49.364;7.484;2024-03-29T13:23:02;9.30;99.90
19220;DHT22;9744;49.364;7.484;2024-03-29T13:25:29;9.30;99.90
19220;DHT22;9744;49.364;7.484;2024-03-29T13:27:58;9.40;99.90
19220;DHT22;9744;49.364;7.484;2024-03-29T13:30:26;9.40;99.90
19220;DHT22;9744;49.364;7.484;2024-03-29T13:32:53;9.40;99.90
19220;DHT22;9744;49.364;7.484;2024-03-29T13:35:22;9.40;99.90
19220;DHT22;9744;49.364;7.484;2024-03-29T13:37:50;9.40;99.90
19220;DHT22;9744;49.364;7.484;2024-03-29T13:40:20;9.40;99.90
19220;DHT22;9744;49.364;7.484;2024-03-29T13:42:47;9.40;99.90
19220;DHT22;9744;49.364;7.484;2024-03-29T13:45:15;9.40;99.90
19220;DHT22;9744;49.364;7.484;2024-03-29T13:47:42;9.50;99.90
19220;DHT22;9744;49.364;7.484;2024-03-29T13:50:11;9.60;99.90
19220;DHT22;9744;49.364;7.484;2024-03-29T13:52:43;9.60;99.90
19220;DHT22;9744;49.364;7.484;2024-03-29T13:55:10;9.70;99.90
19220;DHT22;9744;49.364;7.484;2024-03-29T13:57:38;9.80;99.90
19220;DHT22;9744;49.364;7.484;2024-03-29T14:00:07;9.80;99.90
19220;DHT22;9744;49.364;7.484;2024-03-29T14:02:34;9.80;99.90
19220;DHT22;9744;49.364;7.484;2024-03-29T14:05:02;9.70;99.90
19220;DHT22;9744;49.364;7.484;2024-03-29T14:07:31;9.70;99.90
19220;DHT22;9744;49.364;7.484;2024-03-29T14:09:59;9.70;99.90
19220;DHT22;9744;49.364;7.484;2024-03-29T14:12:29;9.70;99.90
19220;DHT22;9744;49.364;7.484;2024-03-29T14:14:57;9.70;99.90
19220;DHT22;9744;49.364;7.484;2024-03-29T14:17:24;9.60;99.90
19220;DHT22;9744;49.364;7.484;2024-03-29T14:19:52;9.60;99.90
19220;DHT22;9744;49.364;7.484;2024-03-29T14:22:19;9.70;99.90
19220;DHT22;9744;49.364;7.484;2024-03-29T14:24:46;9.40;99.90
19220;DHT22;9744;49.364;7.484;2024-03-29T14:27:14;9.70;99.90
19220;DHT22;9744;49.364;7.484;2024-03-29T14:29:41;9.70;99.90
19220;DHT22;9744;49.364;7.484;2024-03-29T14:32:10;9.70;99.90
19220;DHT22;9744;49.364;7.484;2024-03-29T14:34:38;9.70;99.90
19220;DHT22;9744;49.364;7.484;2024-03-29T14:37:10;9.70;99.90
19220;DHT22;9744;49.364;7.484;2024-03-29T14:39:39;9.70;99.90
19220;DHT22;9744;49.364;7.484;2024-03-29T14:42:08;9.70;99.90
19220;DHT22;9744;49.364;7.484;2024-03-29T14:44:39;9.60;99.90
19220;DHT22;9744;49.364;7.484;2024-03-29T14:47:06;9.70;99.90
19220;DHT22;9744;49.364;7.484;2024-03-29T14:49:33;9.70;99.90
19220;DHT22;9744;49.364;7.484;2024-03-29T14:52:01;9.80;99.90
19220;DHT22;9744;49.364;7.484;2024-03-29T14:54:28;9.90;99.90
19220;DHT22;9744;49.364;7.484;2024-03-29T14:56:56;10.00;99.90
19220;DHT22;9744;49.364;7.484;2024-03-29T14:59:23;10.10;99.90
19220;DHT22;9744;49.364;7.484;2024-03-29T15:01:53;10.10;99.90
19220;DHT22;9744;49.364;7.484;2024-03-29T15:04:20;10.10;99.90
19220;DHT22;9744;49.364;7.484;2024-03-29T15:06:47;10.00;99.90
19220;DHT22;9744;49.364;7.484;2024-03-29T15:09:15;9.90;99.90
19220;DHT22;9744;49.364;7.484;2024-03-29T15:11:42;9.80;99.90
19220;DHT22;9744;49.364;7.484;2024-03-29T15:14:09;9.70;99.90
19220;DHT22;9744;49.364;7.484;2024-03-29T15:16:37;9.80;99.90
19220;DHT22;9744;49.364;7.484;2024-03-29T15:19:06;9.80;99.90
19220;DHT22;9744;49.364;7.484;2024-03-29T15:21:34;9.80;99.90
19220;DHT22;9744;49.364;7.484;2024-03-29T15:24:03;9.70;99.90
19220;DHT22;9744;49.364;7.484;2024-03-29T15:26:30;9.70;99.90
19220;DHT22;9744;49.364;7.484;2024-03-29T15:28:59;9.70;99.90
19220;DHT22;9744;49.364;7.484;2024-03-29T15:31:34;9.70;99.90
19220;DHT22;9744;49.364;7.484;2024-03-29T15:34:02;9.70;99.90
19220;DHT22;9744;49.364;7.484;2024-03-29T15:36:32;9.70;99.90
19220;DHT22;9744;49.364;7.484;2024-03-29T15:39:01;9.70;99.90
19220;DHT22;9744;49.364;7.484;2024-03-29T15:41:31;9.70;99.90
19220;DHT22;9744;49.364;7.484;2024-03-29T15:43:59;9.80;99.90
19220;DHT22;9744;49.364;7.484;2024-03-29T15:46:27;9.90;99.90
19220;DHT22;9744;49.364;7.484;2024-03-29T15:48:54;10.10;99.90
19220;DHT22;9744;49.364;7.484;2024-03-29T15:51:22;10.20;99.90
19220;DHT22;9744;49.364;7.484;2024-03-29T15:53:51;10.20;99.90
19220;DHT22;9744;49.364;7.484;2024-03-29T15:56:21;10.20;99.90
19220;DHT22;9744;49.364;7.484;2024-03-29T15:58:48;10.20;99.90
19220;DHT22;9744;49.364;7.484;2024-03-29T16:01:16;10.20;99.90
19220;DHT22;9744;49.364;7.484;2024-03-29T16:03:43;10.20;99.90
19220;DHT22;9744;49.364;7.484;2024-03-29T16:06:11;10.20;99.90
19220;DHT22;9744;49.364;7.484;2024-03-29T16:08:38;10.30;99.90
19220;DHT22;9744;49.364;7.484;2024-03-29T16:11:07;10.20;99.90
19220;DHT22;9744;49.364;7.484;2024-03-29T16:13:34;10.20;99.90
19220;DHT22;9744;49.364;7.484;2024-03-29T16:16:03;10.20;99.90
19220;DHT22;9744;49.364;7.484;2024-03-29T16:18:31;10.30;99.90
19220;DHT22;9744;49.364;7.484;2024-03-29T16:20:59;10.30;99.90
19220;DHT22;9744;49.364;7.484;2024-03-29T16:23:25;10.40;99.90
19220;DHT22;9744;49.364;7.484;2024-03-29T16:25:53;10.50;99.90
19220;DHT22;9744;49.364;7.484;2024-03-29T16:28:23;10.50;99.90
19220;DHT22;9744;49.364;7.484;2024-03-29T16:30:51;10.50;99.90
19220;DHT22;9744;49.364;7.484;2024-03-29T16:33:18;10.50;99.90
19220;DHT22;9744;49.364;7.484;2024-03-29T16:35:45;10.50;99.90
19220;DHT22;9744;49.364;7.484;2024-03-29T16:38:11;10.50;99.90
19220;DHT22;9744;49.364;7.484;2024-03-29T16:40:39;10.40;99.90
19220;DHT22;9744;49.364;7.484;2024-03-29T16:43:06;10.40;99.90
19220;DHT22;9744;49.364;7.484;2024-03-29T16:45:35;10.50;99.90
19220;DHT22;9744;49.364;7.484;2024-03-29T16:48:02;10.50;99.90
19220;DHT22;9744;49.364;7.484;2024-03-29T16:50:29;10.50;99.90
19220;DHT22;9744;49.364;7.484;2024-03-29T16:52:55;10.50;99.90
19220;DHT22;9744;49.364;7.484;2024-03-29T16:55:24;10.50;99.90
19220;DHT22;9744;49.364;7.484;2024-03-29T16:57:51;10.60;99.90
19220;DHT22;9744;49.364;7.484;2024-03-29T17:00:18;10.60;99.90
19220;DHT22;9744;49.364;7.484;2024-03-29T17:02:47;10.70;99.90
19220;DHT22;9744;49.364;7.484;2024-03-29T17:05:16;10.70;99.90
19220;DHT22;9744;49.364;7.484;2024-03-29T17:07:43;10.60;99.90
19220;DHT22;9744;49.364;7.484;2024-03-29T17:10:11;10.50;99.90
19220;DHT22;9744;49.364;7.484;2024-03-29T17:12:37;10.60;99.90
19220;DHT22;9744;49.364;7.484;2024-03-29T17:15:06;10.60;99.90
19220;DHT22;9744;49.364;7.484;2024-03-29T17:17:32;10.70;99.90
19220;DHT22;9744;49.364;7.484;2024-03-29T17:20:02;10.70;99.90
19220;DHT22;9744;49.364;7.484;2024-03-29T17:22:29;10.80;99.90
19220;DHT22;9744;49.364;7.484;2024-03-29T17:24:57;10.80;99.90
19220;DHT22;9744;49.364;7.484;2024-03-29T17:27:24;10.90;99.90
19220;DHT22;9744;49.364;7.484;2024-03-29T17:29:52;10.90;99.90
19220;DHT22;9744;49.364;7.484;2024-03-29T17:32:19;10.90;99.90
19220;DHT22;9744;49.364;7.484;2024-03-29T17:34:46;10.90;99.90
19220;DHT22;9744;49.364;7.484;2024-03-29T17:37:14;10.90;99.90
19220;DHT22;9744;49.364;7.484;2024-03-29T17:39:45;11.00;99.90
19220;DHT22;9744;49.364;7.484;2024-03-29T17:42:11;11.00;99.90
19220;DHT22;9744;49.364;7.484;2024-03-29T17:44:38;10.90;99.90
19220;DHT22;9744;49.364;7.484;2024-03-29T17:47:05;10.90;99.90
19220;DHT22;9744;49.364;7.484;2024-03-29T17:49:33;10.90;99.90
19220;DHT22;9744;49.364;7.484;2024-03-29T17:52:00;10.90;99.90
19220;DHT22;9744;49.364;7.484;2024-03-29T17:54:28;10.90;99.90
19220;DHT22;9744;49.364;7.484;2024-03-29T17:56:55;10.90;99.90
19220;DHT22;9744;49.364;7.484;2024-03-29T17:59:22;10.80;99.90
19220;DHT22;9744;49.364;7.484;2024-03-29T18:01:48;10.80;99.90
19220;DHT22;9744;49.364;7.484;2024-03-29T18:04:15;10.80;99.90
19220;DHT22;9744;49.364;7.484;2024-03-29T18:06:42;10.70;99.90
19220;DHT22;9744;49.364;7.484;2024-03-29T18:09:09;10.70;99.90
19220;DHT22;9744;49.364;7.484;2024-03-29T18:11:37;10.70;99.90
19220;DHT22;9744;49.364;7.484;2024-03-29T18:14:04;10.70;99.90
19220;DHT22;9744;49.364;7.484;2024-03-29T18:16:30;10.60;99.90
19220;DHT22;9744;49.364;7.484;2024-03-29T18:18:58;10.60;99.90
19220;DHT22;9744;49.364;7.484;2024-03-29T18:21:24;10.60;99.90
19220;DHT22;9744;49.364;7.484;2024-03-29T18:23:51;10.60;99.90
19220;DHT22;9744;49.364;7.484;2024-03-29T18:26:17;10.50;99.90
19220;DHT22;9744;49.364;7.484;2024-03-29T18:28:46;10.50;99.90
19220;DHT22;9744;49.364;7.484;2024-03-29T18:31:12;10.50;99.90
19220;DHT22;9744;49.364;7.484;2024-03-29T18:33:39;10.40;99.90
19220;DHT22;9744;49.364;7.484;2024-03-29T18:36:12;10.30;99.90
19220;DHT22;9744;49.364;7.484;2024-03-29T18:38:39;10.30;99.90
19220;DHT22;9744;49.364;7.484;2024-03-29T18:41:07;10.20;99.90
19220;DHT22;9744;49.364;7.484;2024-03-29T18:43:34;10.00;99.90
19220;DHT22;9744;49.364;7.484;2024-03-29T18:46:05;9.90;99.90
19220;DHT22;9744;49.364;7.484;2024-03-29T18:48:32;9.90;99.90
19220;DHT22;9744;49.364;7.484;2024-03-29T18:50:59;10.00;99.90
19220;DHT22;9744;49.364;7.484;2024-03-29T18:53:26;10.00;99.90
19220;DHT22;9744;49.364;7.484;2024-03-29T18:55:57;10.00;99.90
19220;DHT22;9744;49.364;7.484;2024-03-29T18:58:25;9.90;99.90
19220;DHT22;9744;49.364;7.484;2024-03-29T19:00:51;9.90;99.90
19220;DHT22;9744;49.364;7.484;2024-03-29T19:03:21;9.90;99.90
19220;DHT22;9744;49.364;7.484;2024-03-29T19:05:50;10.00;99.90
19220;DHT22;9744;49.364;7.484;2024-03-29T19:08:17;10.00;99.90
19220;DHT22;9744;49.364;7.484;2024-03-29T19:10:44;9.90;99.90
19220;DHT22;9744;49.364;7.484;2024-03-29T19:13:11;9.80;99.90
19220;DHT22;9744;49.364;7.484;2024-03-29T19:15:37;9.80;99.90
19220;DHT22;9744;49.364;7.484;2024-03-29T19:18:05;9.90;99.90
19220;DHT22;9744;49.364;7.484;2024-03-29T19:20:34;9.90;99.90
19220;DHT22;9744;49.364;7.484;2024-03-29T19:23:00;9.90;99.90
19220;DHT22;9744;49.364;7.484;2024-03-29T19:25:28;9.80;99.90
19220;DHT22;9744;49.364;7.484;2024-03-29T19:27:54;9.80;99.90
19220;DHT22;9744;49.364;7.484;2024-03-29T19:30:21;9.80;99.90
19220;DHT22;9744;49.364;7.484;2024-03-29T19:32:55;9.80;99.90
19220;DHT22;9744;49.364;7.484;2024-03-29T19:35:23;9.80;99.90
19220;DHT22;9744;49.364;7.484;2024-03-29T19:37:50;9.80;99.90
19220;DHT22;9744;49.364;7.484;2024-03-29T19:40:19;9.80;99.90
19220;DHT22;9744;49.364;7.484;2024-03-29T19:42:46;9.70;99.90
19220;DHT22;9744;49.364;7.484;2024-03-29T19:45:14;9.70;99.90